Time;durP1;ratioP1;P1;durP2;ratioP2;P2;SDS_P1;SDS_P2;PMS_P1;PMS_P2;Temp;Humidity;BMP_temperature;BMP_pressure;BME280_temperature;BME280_humidity;BME280_pressure;Samples;Min_cycle;Max_cycle;Signal;HPM_P1;HPM_P2
2024/03/09 00:00:40;;;;;;;6.03;3.20;;;14.80;95.10;;;15.17;42.05;100115.31;6084424;22;97214;-44
2024/03/09 00:03:08;;;;;;;8.83;5.30;;;14.80;99.00;;;15.05;39.07;100116.09;6090581;22;97645;-44
2024/03/09 00:05:34;;;;;;;4.90;3.27;;;14.80;94.80;;;15.06;42.11;100107.19;6086262;22;108061;-43
2024/03/09 00:08:04;;;;;;;5.20;2.77;;;14.70;98.90;;;15.02;42.15;100105.66;6091495;22;101608;-44
2024/03/09 00:10:30;;;;;;;5.67;2.70;;;14.70;99.20;;;15.14;41.78;100102.22;6078077;22;97870;-44
2024/03/09 00:12:58;;;;;;;4.97;3.23;;;14.90;99.00;;;15.11;38.85;100094.47;6091177;22;97680;-44
2024/03/09 00:15:25;;;;;;;4.23;2.77;;;15.00;96.60;;;15.23;42.10;100097.28;6089550;22;106536;-45
2024/03/09 00:17:56;;;;;;;4.53;3.17;;;15.10;99.40;;;15.24;41.90;100105.16;6065141;22;98494;-44
2024/03/09 00:20:27;;;;;;;5.17;3.03;;;15.10;98.80;;;15.32;41.87;100097.53;6049889;22;97620;-44
2024/03/09 00:22:57;;;;;;;4.73;3.13;;;15.20;99.20;;;15.35;41.88;100096.53;6083442;22;97370;-41
2024/03/09 00:25:24;;;;;;;5.60;3.40;;;15.30;98.50;;;15.41;41.77;100096.13;6061713;22;100620;-44
2024/03/09 00:27:52;;;;;;;6.10;3.57;;;15.40;98.80;;;15.47;40.94;100101.03;6090813;22;97428;-45
2024/03/09 00:30:19;;;;;;;5.03;3.37;;;15.50;96.90;;;15.48;41.32;100100.09;6067920;22;97585;-43
2024/03/09 00:32:54;;;;;;;3.97;2.63;;;15.50;98.00;;;15.47;41.69;100087.72;6081296;22;97609;-46
2024/03/09 00:35:24;;;;;;;5.63;3.40;;;15.40;98.70;;;15.46;41.09;100094.00;6088540;22;98911;-45
2024/03/09 00:37:50;;;;;;;6.10;3.20;;;15.40;97.20;;;15.50;41.69;100090.22;6097093;22;99535;-44
2024/03/09 00:40:17;;;;;;;5.20;2.90;;;15.40;98.80;;;15.54;41.28;100091.72;6089627;22;97443;-37
2024/03/09 00:42:46;;;;;;;6.00;4.30;;;15.50;96.70;;;15.57;41.50;100086.19;6074545;22;97916;-43
2024/03/09 00:45:15;;;;;;;4.33;3.00;;;15.60;98.20;;;15.58;41.58;100085.22;6086492;22;97400;-42
2024/03/09 00:47:47;;;;;;;6.83;3.87;;;15.60;98.60;;;15.57;41.15;100077.38;6089749;22;99556;-46
2024/03/09 00:50:16;;;;;;;4.67;3.20;;;15.60;98.10;;;15.59;41.24;100072.78;6080097;22;97341;-44
2024/03/09 00:52:43;;;;;;;4.40;2.93;;;15.60;98.10;;;15.63;41.32;100075.22;6074946;22;98081;-46
2024/03/09 00:55:15;;;;;;;7.90;3.77;;;15.70;98.50;;;15.67;40.62;100071.38;6073187;22;98003;-44
2024/03/09 00:57:45;;;;;;;6.63;3.30;;;15.80;96.20;;;15.72;40.95;100066.59;6052185;22;100106;-44
2024/03/09 01:00:16;;;;;;;4.40;3.30;;;15.80;98.20;;;15.75;41.10;100058.41;6083314;22;97652;-45
2024/03/09 01:02:44;;;;;;;6.67;4.07;;;15.90;98.00;;;15.79;40.59;100048.47;6058316;22;97544;-43
2024/03/09 01:05:19;;;;;;;5.80;3.30;;;15.90;97.90;;;15.83;40.85;100043.78;6091748;22;98957;-45
2024/03/09 01:07:45;;;;;;;5.50;3.10;;;15.90;97.90;;;15.81;40.93;100048.34;6092536;22;100705;-44
2024/03/09 01:10:11;;;;;;;5.97;3.30;;;16.00;97.80;;;15.87;40.73;100050.59;6070849;22;97412;-45
2024/03/09 01:12:40;;;;;;;7.13;3.93;;;16.00;97.90;;;15.88;38.22;100046.97;6066704;22;97394;-43
2024/03/09 01:15:09;;;;;;;10.67;5.27;;;16.00;94.90;;;15.75;38.09;100055.75;6086031;22;99179;-42
2024/03/09 01:17:36;;;;;;;4.60;3.03;;;15.80;93.50;;;15.66;40.78;100064.38;6087108;22;98005;-46
2024/03/09 01:20:07;;;;;;;5.27;3.00;;;15.60;97.00;;;15.71;40.87;100051.59;6091743;22;97772;-39
2024/03/09 01:22:34;;;;;;;9.57;4.20;;;15.70;98.00;;;15.64;36.95;100055.66;6085787;22;97230;-41
2024/03/09 01:25:00;;;;;;;7.93;3.60;;;15.80;95.10;;;15.72;40.87;100042.69;6074940;22;102077;-44
2024/03/09 01:27:26;;;;;;;4.77;2.87;;;15.80;97.80;;;15.71;41.06;100046.28;6090540;22;97954;-43
2024/03/09 01:29:59;;;;;;;8.50;4.43;;;15.80;98.00;;;15.70;39.51;100041.06;6075950;22;97943;-45
2024/03/09 01:32:25;;;;;;;6.83;4.67;;;15.80;95.50;;;15.68;36.96;100043.00;6093756;22;98259;-45
2024/03/09 01:34:51;;;;;;;6.53;4.10;;;15.80;94.20;;;15.72;40.76;100037.34;6087631;22;99118;-44
2024/03/09 01:37:20;;;;;;;4.73;3.03;;;15.80;97.20;;;15.72;40.81;100041.81;6059887;22;101016;-44
2024/03/09 01:39:56;;;;;;;5.20;3.77;;;15.80;98.00;;;15.70;39.27;100039.28;6086404;22;97232;-44
2024/03/09 01:42:21;;;;;;;4.23;3.23;;;15.90;95.60;;;15.72;40.71;100036.50;6088954;22;97639;-45
2024/03/09 01:44:49;;;;;;;6.03;3.60;;;15.80;97.70;;;15.72;40.38;100037.34;6069678;22;100585;-43
2024/03/09 01:47:18;;;;;;;6.73;3.50;;;15.90;97.00;;;15.76;40.66;100028.22;6071989;22;99655;-38
2024/03/09 01:49:45;;;;;;;5.43;3.37;;;15.90;97.50;;;15.69;40.45;100032.25;6075933;22;101469;-45
2024/03/09 01:52:12;;;;;;;5.27;3.30;;;15.80;96.80;;;15.71;40.72;100024.16;6054128;22;98037;-46
2024/03/09 01:54:43;;;;;;;8.13;4.20;;;15.80;97.70;;;15.71;40.34;100030.34;6079656;22;113840;-45
2024/03/09 01:57:09;;;;;;;6.10;3.67;;;15.80;96.70;;;15.66;41.13;100032.47;6085213;22;108990;-50
2024/03/09 01:59:37;;;;;;;8.50;4.93;;;15.80;98.00;;;15.67;37.32;100023.53;6082152;22;97096;-44
2024/03/09 02:02:04;;;;;;;4.13;2.97;;;15.80;94.50;;;15.72;40.68;100021.41;6092217;22;97607;-47
2024/03/09 02:04:31;;;;;;;5.80;3.33;;;15.80;97.60;;;15.75;40.90;100017.69;6088006;22;103433;-44
2024/03/09 02:06:57;;;;;;;6.40;3.60;;;15.90;97.80;;;15.70;40.84;100017.16;6080440;22;121642;-45
2024/03/09 02:09:25;;;;;;;4.63;2.93;;;15.80;97.60;;;15.72;40.81;100005.44;6087803;22;97823;-41
2024/03/09 02:11:54;;;;;;;5.73;3.73;;;15.90;97.90;;;15.74;41.02;100002.69;6076728;22;98298;-46
2024/03/09 02:14:21;;;;;;;4.70;2.93;;;15.90;97.60;;;15.76;40.85;100001.63;6085563;22;98658;-45
2024/03/09 02:16:50;;;;;;;6.97;3.63;;;15.90;97.80;;;15.78;40.78;100004.22;6084046;22;98997;-43
2024/03/09 02:19:16;;;;;;;4.47;3.27;;;16.00;97.70;;;15.77;41.05;100006.00;6052170;22;98951;-43
2024/03/09 02:21:46;;;;;;;4.87;3.37;;;15.90;97.50;;;15.83;40.56;100003.88;6079933;22;97916;-39
2024/03/09 02:24:19;;;;;;;6.13;3.67;;;16.00;97.30;;;15.77;37.47;100003.34;6097040;22;97916;-44
2024/03/09 02:26:45;;;;;;;5.20;3.40;;;16.00;95.10;;;15.74;40.43;99994.72;6073448;22;102025;-44
2024/03/09 02:29:13;;;;;;;6.13;3.40;;;15.90;97.20;;;15.80;40.22;99990.81;6072490;22;117462;-44
2024/03/09 02:31:39;;;;;;;5.03;2.90;;;15.90;97.30;;;15.75;40.27;99994.59;6065294;22;97391;-44
2024/03/09 02:34:05;;;;;;;5.97;3.70;;;15.90;97.10;;;15.81;40.36;99995.16;6071956;22;98089;-44
2024/03/09 02:36:33;;;;;;;5.57;3.23;;;15.90;96.90;;;15.80;38.72;99990.81;6094585;22;99030;-45
2024/03/09 02:39:00;;;;;;;7.43;3.70;;;15.90;96.10;;;15.77;40.28;99987.41;6086976;22;97652;-41
2024/03/09 02:41:30;;;;;;;5.00;3.60;;;15.90;97.30;;;15.75;40.50;99989.28;6079189;22;97998;-45
2024/03/09 02:43:56;;;;;;;6.37;3.80;;;15.90;97.10;;;15.81;40.09;99988.03;6089683;22;110039;-41
2024/03/09 02:46:26;;;;;;;4.43;2.97;;;15.90;96.20;;;15.81;40.34;99987.19;6090508;22;97815;-44
2024/03/09 02:48:56;;;;;;;5.57;3.40;;;15.90;97.20;;;15.82;39.36;99987.09;6089873;22;97060;-42
2024/03/09 02:51:25;;;;;;;5.33;3.40;;;15.90;95.50;;;15.79;37.49;99987.28;6073090;22;97743;-45
2024/03/09 02:53:51;;;;;;;5.47;3.57;;;16.00;95.20;;;15.76;40.54;99983.00;6089572;22;99361;-43
2024/03/09 02:56:19;;;;;;;6.83;3.53;;;15.90;97.40;;;15.79;40.74;99984.63;6056755;22;99486;-44
2024/03/09 02:58:46;;;;;;;5.00;3.03;;;16.00;97.50;;;15.81;40.84;99971.25;6080584;22;97381;-45
2024/03/09 03:01:17;;;;;;;5.47;3.03;;;16.00;97.40;;;15.83;40.53;99975.50;6091275;22;97080;-44
2024/03/09 03:04:07;;;;;;;6.00;3.70;;;16.00;97.30;;;15.87;40.38;99976.97;6088433;22;99807;-40
2024/03/09 03:06:36;;;;;;;7.80;3.97;;;16.00;97.30;;;15.90;40.11;99981.22;6046064;22;102473;-45
2024/03/09 03:09:10;;;;;;;6.17;3.90;;;16.10;97.00;;;15.91;40.11;99967.84;6077146;22;97206;-43
2024/03/09 03:11:36;;;;;;;4.57;2.70;;;16.10;97.00;;;15.90;39.82;99967.94;6039725;22;98184;-41
2024/03/09 03:14:02;;;;;;;5.80;3.90;;;16.10;96.90;;;15.87;40.43;99970.81;6082229;22;98360;-42
2024/03/09 03:16:35;;;;;;;4.83;3.63;;;16.10;96.70;;;15.89;40.39;99969.75;6076119;22;98657;-43
2024/03/09 03:19:06;;;;;;;9.33;4.87;;;16.10;97.00;;;15.90;39.53;99973.25;6091446;22;97519;-44
2024/03/09 03:21:36;;;;;;;5.33;3.53;;;16.00;95.30;;;15.89;39.90;99975.06;6084501;22;97478;-45
2024/03/09 03:24:03;;;;;;;4.13;2.70;;;16.00;96.10;;;15.84;39.01;99976.34;6086440;22;103697;-45
2024/03/09 03:26:35;;;;;;;5.17;3.20;;;15.90;95.20;;;15.80;40.07;99977.50;6077630;22;98270;-41
2024/03/09 03:29:03;;;;;;;5.23;3.47;;;15.80;97.10;;;15.79;40.00;99973.16;6076977;22;97595;-47
2024/03/09 03:31:30;;;;;;;4.60;3.17;;;15.80;95.60;;;15.73;40.31;99975.25;6093373;22;106999;-44
2024/03/09 03:34:00;;;;;;;6.27;3.13;;;15.80;97.30;;;15.75;40.82;99968.00;6027482;22;100140;-43
2024/03/09 03:36:26;;;;;;;4.30;3.07;;;15.80;97.50;;;15.79;40.39;99970.50;6083574;22;99533;-43
2024/03/09 03:38:54;;;;;;;5.37;3.17;;;15.90;97.40;;;15.78;40.39;99966.97;6065548;22;98186;-45
2024/03/09 03:41:22;;;;;;;6.83;3.43;;;15.90;97.40;;;15.81;40.59;99972.09;6073402;22;97643;-44
2024/03/09 03:43:50;;;;;;;5.40;3.10;;;16.00;97.20;;;15.82;40.47;99972.94;6078480;22;97899;-43
2024/03/09 03:46:16;;;;;;;4.83;3.00;;;16.00;97.20;;;15.88;40.31;99969.84;6086266;22;98375;-43
2024/03/09 03:48:46;;;;;;;5.40;3.40;;;16.00;97.00;;;15.89;39.99;99960.91;6081776;22;97333;-45
2024/03/09 03:51:15;;;;;;;4.23;2.90;;;16.00;96.80;;;15.91;39.87;99964.31;6110574;22;97578;-46
2024/03/09 03:53:43;;;;;;;6.00;3.20;;;16.10;97.00;;;15.93;40.06;99957.09;6108184;22;97946;-46
2024/03/09 03:56:09;;;;;;;7.47;3.47;;;16.10;96.90;;;15.92;40.24;99950.09;6111043;22;97728;-45
2024/03/09 03:58:37;;;;;;;5.47;3.80;;;16.10;96.90;;;15.93;39.78;99949.97;6109973;22;110592;-45
2024/03/09 04:01:03;;;;;;;5.43;3.50;;;16.10;96.90;;;15.91;40.00;99945.69;6115524;22;97179;-44
2024/03/09 04:03:31;;;;;;;5.33;3.43;;;16.10;96.50;;;15.87;41.00;99949.53;6118843;22;98306;-44
2024/03/09 04:06:04;;;;;;;6.90;3.97;;;16.10;97.30;;;15.89;40.11;99939.63;6111423;22;99190;-40
2024/03/09 04:08:30;;;;;;;4.90;3.40;;;16.10;96.30;;;15.86;40.01;99943.34;6112627;22;97434;-39
2024/03/09 04:10:57;;;;;;;4.47;3.03;;;16.00;96.80;;;15.91;39.93;99940.38;6110856;22;105984;-42
2024/03/09 04:13:23;;;;;;;4.40;2.87;;;16.10;96.40;;;15.91;39.93;99940.38;6111471;22;99696;-43
2024/03/09 04:15:51;;;;;;;5.17;3.43;;;16.00;96.90;;;15.92;40.07;99937.63;6110566;22;106401;-44
2024/03/09 04:18:21;;;;;;;5.43;3.73;;;16.10;96.80;;;15.91;39.72;99940.38;6088280;22;97472;-44
2024/03/09 04:20:47;;;;;;;5.87;3.77;;;16.10;96.50;;;15.91;40.16;99943.03;6111056;22;97420;-43
2024/03/09 04:23:16;;;;;;;5.87;3.40;;;16.00;96.80;;;15.91;39.81;99941.25;6111077;22;104433;-41
2024/03/09 04:25:52;;;;;;;4.67;3.40;;;16.00;96.80;;;15.89;39.82;99943.13;6099155;22;98052;-43
2024/03/09 04:28:20;;;;;;;6.23;3.70;;;16.00;95.50;;;15.89;40.03;99940.47;6109729;22;97062;-44
2024/03/09 04:30:50;;;;;;;4.57;3.20;;;16.00;96.80;;;15.89;40.39;99942.28;6097681;22;97428;-43
2024/03/09 04:33:20;;;;;;;5.23;3.70;;;16.00;97.00;;;15.88;40.08;99937.94;6110456;22;98343;-44
2024/03/09 04:35:49;;;;;;;4.93;3.30;;;16.10;97.10;;;15.88;39.92;99936.13;6097482;22;97346;-42
2024/03/09 04:38:16;;;;;;;6.77;3.97;;;16.10;96.80;;;15.90;39.96;99930.69;6101868;22;109522;-45
2024/03/09 04:40:43;;;;;;;4.57;2.77;;;16.10;97.00;;;15.90;40.42;99933.34;6127130;22;97866;-43
2024/03/09 04:43:12;;;;;;;5.47;3.73;;;16.10;97.00;;;15.90;40.00;99928.03;6110334;22;99513;-40
2024/03/09 04:45:38;;;;;;;5.13;3.50;;;16.10;96.70;;;15.82;40.31;99919.75;6111680;22;97385;-44
2024/03/09 04:48:06;;;;;;;5.50;3.37;;;16.10;96.70;;;15.88;39.96;99921.97;6114190;22;97104;-44
2024/03/09 04:50:35;;;;;;;6.60;3.87;;;16.10;96.50;;;15.90;39.58;99922.72;6118514;22;97489;-45
2024/03/09 04:53:06;;;;;;;6.03;3.43;;;16.10;95.80;;;15.93;40.01;99925.19;6110966;22;102029;-45
2024/03/09 04:55:32;;;;;;;5.70;3.60;;;16.10;95.90;;;15.91;39.69;99929.75;6088432;22;101626;-42
2024/03/09 04:57:58;;;;;;;4.90;3.20;;;16.00;96.50;;;15.89;39.97;99926.34;6095881;22;97307;-37
2024/03/09 05:00:28;;;;;;;5.43;3.43;;;16.00;96.60;;;15.90;39.66;99918.25;6128326;22;97215;-46
2024/03/09 05:02:54;;;;;;;4.90;3.13;;;16.00;96.60;;;15.93;40.01;99911.91;6104943;22;98090;-44
2024/03/09 05:05:21;;;;;;;6.17;3.57;;;16.10;96.80;;;15.93;39.86;99917.22;6098610;22;97674;-44
2024/03/09 05:07:49;;;;;;;6.40;3.67;;;16.10;96.70;;;15.91;40.05;99908.47;6113159;22;97084;-46
2024/03/09 05:10:17;;;;;;;5.47;3.47;;;16.10;96.60;;;15.87;40.37;99912.31;6111671;22;98832;-38
2024/03/09 05:12:53;;;;;;;5.00;3.60;;;16.10;97.00;;;15.87;40.51;99918.47;6118592;22;101140;-43
2024/03/09 05:15:30;;;;;;;6.40;3.73;;;16.10;97.20;;;15.90;39.99;99906.75;6110859;22;98933;-45
2024/03/09 05:18:00;;;;;;;10.87;5.20;;;16.10;96.80;;;15.87;38.74;99906.97;6093857;22;97236;-43
2024/03/09 05:20:27;;;;;;;5.80;3.43;;;16.10;94.70;;;15.87;40.24;99897.19;6113429;22;97279;-43
2024/03/09 05:23:02;;;;;;;6.23;3.47;;;16.10;96.80;;;15.83;40.77;99892.19;6106588;22;99478;-42
2024/03/09 05:25:30;;;;;;;8.27;4.00;;;16.10;97.20;;;15.87;40.42;99896.34;6112193;22;98491;-44
2024/03/09 05:27:57;;;;;;;7.23;3.63;;;16.10;96.90;;;15.83;39.75;99895.72;6101457;22;97454;-42
2024/03/09 05:30:27;;;;;;;7.33;3.90;;;16.10;96.70;;;15.82;40.63;99894.00;6095211;22;97598;-46
2024/03/09 05:32:54;;;;;;;6.30;3.80;;;16.10;97.10;;;15.84;40.42;99888.59;6084735;22;99458;-43
2024/03/09 05:35:26;;;;;;;5.47;3.87;;;16.10;96.80;;;15.87;40.11;99896.34;6116498;22;97487;-41
2024/03/09 05:37:53;;;;;;;7.70;4.17;;;16.10;97.10;;;15.89;40.18;99889.09;6072944;22;97956;-44
2024/03/09 05:40:31;;;;;;;5.87;3.70;;;16.10;96.60;;;15.90;39.62;99891.66;6097327;22;97539;-46
2024/03/09 05:43:06;;;;;;;6.63;3.50;;;16.20;96.50;;;15.92;39.82;99883.59;6107260;22;98223;-49
2024/03/09 05:45:32;;;;;;;6.70;3.53;;;16.20;96.40;;;15.87;39.75;99885.72;6115366;22;101476;-44
2024/03/09 05:47:58;;;;;;;5.90;3.53;;;16.20;96.10;;;15.85;40.67;99890.28;6096927;22;114218;-44
2024/03/09 05:50:28;;;;;;;6.30;3.87;;;16.10;96.90;;;15.85;40.36;99892.94;6116855;22;96753;-41
2024/03/09 05:52:57;;;;;;;6.83;3.67;;;16.10;96.90;;;15.87;40.24;99893.69;6111880;22;99413;-44
2024/03/09 05:55:24;;;;;;;6.13;3.67;;;16.10;96.70;;;15.87;40.27;99885.72;6113823;22;98114;-45
2024/03/09 05:57:52;;;;;;;6.33;4.33;;;16.10;96.50;;;15.84;40.07;99885.94;6090226;22;97727;-43
2024/03/09 06:00:29;;;;;;;6.27;3.87;;;16.10;96.80;;;15.85;40.46;99884.97;6047262;22;97618;-43
2024/03/09 06:02:56;;;;;;;6.57;3.67;;;16.10;96.80;;;15.84;40.50;99892.09;6108133;22;97923;-45
2024/03/09 06:05:22;;;;;;;5.40;3.77;;;16.10;96.90;;;15.86;39.85;99892.00;6111762;22;105955;-46
2024/03/09 06:07:49;;;;;;;5.90;3.50;;;16.20;96.50;;;15.86;39.95;99889.31;6117308;22;97111;-43
2024/03/09 06:10:19;;;;;;;7.13;3.80;;;16.20;96.50;;;15.82;40.38;99882.53;6097167;22;101729;-44
2024/03/09 06:12:50;;;;;;;6.40;3.93;;;16.10;96.70;;;15.80;39.99;99864.03;6109157;22;101088;-43
2024/03/09 06:15:18;;;;;;;7.57;4.10;;;16.10;96.90;;;15.84;40.01;99872.63;6086480;22;98902;-44
2024/03/09 06:17:46;;;;;;;8.03;4.00;;;16.10;96.60;;;15.80;40.43;99879.13;6107622;22;97746;-45
2024/03/09 06:20:15;;;;;;;6.77;3.53;;;16.10;96.70;;;15.82;39.82;99882.53;6081305;22;101035;-46
2024/03/09 06:22:43;;;;;;;6.60;3.90;;;16.10;96.20;;;15.88;39.25;99892.72;6110872;22;98954;-44
2024/03/09 06:25:22;;;;;;;6.57;4.47;;;16.10;95.70;;;15.77;39.60;99897.00;6085385;22;98854;-44
2024/03/09 06:27:52;;;;;;;6.30;3.60;;;15.90;96.20;;;15.77;39.65;99912.94;6101367;22;97229;-46
2024/03/09 06:30:27;;;;;;;6.37;3.50;;;15.90;96.10;;;15.59;39.84;99903.56;6119337;22;97557;-42
2024/03/09 06:32:53;;;;;;;6.27;3.43;;;15.60;96.40;;;15.63;40.10;99894.44;6120021;22;99396;-44
2024/03/09 06:35:20;;;;;;;6.37;4.20;;;15.70;96.40;;;15.69;39.13;99907.28;6083021;22;98391;-43
2024/03/09 06:37:59;;;;;;;6.20;3.93;;;15.80;95.30;;;15.70;39.82;99906.34;6109881;22;97381;-45
2024/03/09 06:40:30;;;;;;;6.17;4.30;;;15.80;96.50;;;15.69;40.24;99904.63;6100182;22;97424;-46
2024/03/09 06:43:01;;;;;;;5.57;3.77;;;15.80;96.30;;;15.69;40.00;99906.44;6096093;22;98538;-45
2024/03/09 06:45:27;;;;;;;7.40;4.53;;;15.80;95.80;;;15.64;39.80;99916.56;6094447;22;99065;-44
2024/03/09 06:47:54;;;;;;;5.80;4.33;;;15.70;95.90;;;15.62;38.61;99908.69;6112753;22;97625;-42
2024/03/09 06:50:22;;;;;;;5.93;3.57;;;15.70;95.20;;;15.59;40.28;99908.88;6110925;22;97361;-44
2024/03/09 06:52:48;;;;;;;5.87;3.60;;;15.70;97.00;;;15.65;40.01;99912.94;6110132;22;111387;-44
2024/03/09 06:55:14;;;;;;;6.33;3.60;;;15.70;96.50;;;15.68;40.30;99912.72;6111167;22;98183;-43
2024/03/09 06:57:41;;;;;;;9.37;5.50;;;15.80;96.80;;;15.63;39.52;99904.22;6107415;22;97564;-46
2024/03/09 07:00:14;;;;;;;8.87;4.97;;;15.80;95.00;;;15.66;39.83;99910.16;6090521;22;108488;-45
2024/03/09 07:02:43;;;;;;;6.63;3.70;;;15.80;96.30;;;15.65;40.33;99916.44;6109633;22;97827;-42
2024/03/09 07:05:09;;;;;;;8.77;5.40;;;15.80;97.00;;;15.61;37.54;99906.09;6096246;22;100292;-44
2024/03/09 07:07:42;;;;;;;7.30;4.57;;;15.80;94.10;;;15.62;40.41;99903.38;6111557;22;97850;-45
2024/03/09 07:10:12;;;;;;;6.13;3.47;;;15.80;96.40;;;15.66;40.03;99910.16;6096365;22;97311;-45
2024/03/09 07:12:42;;;;;;;5.93;3.57;;;15.80;96.10;;;15.68;40.78;99918.03;6110470;22;98414;-43
2024/03/09 07:15:20;;;;;;;6.37;3.70;;;15.80;97.30;;;15.65;40.65;99918.25;6027648;22;102885;-45
2024/03/09 07:17:49;;;;;;;8.17;4.63;;;15.80;96.70;;;15.60;40.38;99925.66;6085386;22;97395;-44
2024/03/09 07:20:18;;;;;;;7.20;3.17;;;15.80;96.30;;;15.61;41.43;99920.25;6110273;22;97742;-41
2024/03/09 07:22:48;;;;;;;7.43;4.60;;;15.80;97.70;;;15.61;40.92;99922.91;6095871;22;98052;-45
2024/03/09 07:25:24;;;;;;;7.43;3.80;;;15.80;96.70;;;15.56;40.22;99927.66;6115605;22;99489;-45
2024/03/09 07:27:57;;;;;;;5.43;2.97;;;15.80;96.00;;;15.56;41.41;99919.69;6096488;22;97415;-48
2024/03/09 07:30:24;;;;;;;9.57;5.17;;;15.80;97.60;;;15.58;38.81;99923.09;6128593;22;97422;-44
2024/03/09 07:32:50;;;;;;;8.40;5.37;;;15.70;95.00;;;15.56;40.04;99929.47;6090989;22;97960;-49
2024/03/09 07:35:20;;;;;;;6.87;3.87;;;15.70;95.90;;;15.62;40.38;99927.28;6111230;22;98207;-45
2024/03/09 07:37:55;;;;;;;10.13;5.60;;;15.70;97.10;;;15.54;39.86;99926.06;6096570;22;97072;-44
2024/03/09 07:40:25;;;;;;;4.77;3.40;;;15.60;95.20;;;15.39;41.05;99927.94;6114189;22;97469;-45
2024/03/09 07:42:53;;;;;;;6.57;4.23;;;15.50;97.10;;;15.32;40.79;99927.50;6092897;22;101607;-45
2024/03/09 07:45:22;;;;;;;6.77;3.60;;;15.40;96.60;;;15.38;37.92;99918.28;6109482;22;98828;-45
2024/03/09 07:47:49;;;;;;;4.80;3.33;;;15.50;95.60;;;15.31;41.68;99914.31;6108719;22;97404;-45
2024/03/09 07:50:20;;;;;;;7.00;3.47;;;15.50;97.50;;;15.38;41.41;99919.13;6097563;22;100258;-46
2024/03/09 07:52:49;;;;;;;13.13;6.07;;;15.50;97.70;;;15.39;40.11;99912.84;6091886;22;98333;-43
2024/03/09 07:55:17;;;;;;;5.67;3.73;;;15.60;95.80;;;15.41;41.21;99920.72;6115018;22;97997;-45
2024/03/09 07:58:01;;;;;;;5.67;3.43;;;15.60;97.20;;;15.56;41.06;99901.09;6113682;22;97516;-43
2024/03/09 08:00:27;;;;;;;5.23;3.13;;;15.70;97.60;;;15.58;41.72;99904.47;6111806;22;97318;-44
2024/03/09 08:02:55;;;;;;;6.00;3.50;;;15.80;97.90;;;15.61;39.69;99900.78;6093978;22;99667;-45
2024/03/09 08:05:24;;;;;;;11.80;5.53;;;15.90;96.40;;;15.55;38.23;99906.50;6131480;22;99516;-43
2024/03/09 08:07:53;;;;;;;9.53;3.53;;;15.80;94.00;;;15.67;40.91;99905.72;6108094;22;97759;-43
2024/03/09 08:10:22;;;;;;;11.43;5.73;;;15.90;97.10;;;15.70;39.48;99905.50;6109608;22;97351;-47
2024/03/09 08:12:49;;;;;;;4.60;3.13;;;15.90;95.20;;;15.68;41.33;99902.09;6108728;22;99421;-46
2024/03/09 08:15:15;;;;;;;6.40;3.57;;;15.90;97.50;;;15.68;41.61;99897.63;6109839;22;105875;-45
2024/03/09 08:17:47;;;;;;;6.37;4.10;;;16.00;97.60;;;15.66;41.79;99883.59;6109651;22;97666;-44
2024/03/09 08:20:14;;;;;;;5.83;3.70;;;16.00;97.70;;;15.73;41.36;99894.63;6109519;22;97215;-45
2024/03/09 08:22:42;;;;;;;4.90;3.00;;;16.00;97.70;;;15.79;41.15;99898.69;6103533;22;104368;-45
2024/03/09 08:25:12;;;;;;;10.73;6.07;;;16.10;97.20;;;15.50;38.31;99890.88;6108512;22;99626;-45
2024/03/09 08:27:41;;;;;;;8.83;5.13;;;15.80;93.90;;;15.42;37.62;99893.19;6112146;22;98142;-43
2024/03/09 08:30:15;;;;;;;8.53;5.27;;;15.70;94.90;;;15.40;40.53;99892.44;6111255;22;97414;-44
2024/03/09 08:32:58;;;;;;;5.27;3.17;;;15.60;96.30;;;15.47;41.09;99888.41;6109605;22;101624;-44
2024/03/09 08:35:24;;;;;;;4.37;2.90;;;15.60;97.60;;;15.43;41.29;99878.94;6135768;22;98183;-44
2024/03/09 08:37:53;;;;;;;4.00;2.97;;;15.60;97.80;;;15.50;41.40;99893.53;6109266;22;97084;-44
2024/03/09 08:40:23;;;;;;;5.67;3.07;;;15.70;97.80;;;15.55;41.36;99886.09;6112530;22;97831;-45
2024/03/09 08:42:51;;;;;;;4.37;2.77;;;15.80;97.60;;;15.60;41.47;99884.00;6110808;22;99738;-42
2024/03/09 08:45:22;;;;;;;5.60;3.13;;;15.90;97.60;;;15.69;39.84;99878.06;6133456;22;97957;-44
2024/03/09 08:47:52;;;;;;;5.63;2.97;;;15.90;96.50;;;15.71;40.39;99878.78;6111210;22;97586;-45
2024/03/09 08:50:23;;;;;;;5.83;3.37;;;16.00;96.90;;;15.70;41.01;99871.78;6109308;22;97786;-43
2024/03/09 08:52:49;;;;;;;5.23;2.93;;;16.00;97.30;;;15.72;40.96;99872.53;6111703;22;108224;-45
2024/03/09 08:55:15;;;;;;;7.13;4.27;;;16.10;97.40;;;15.74;40.84;99867.09;6114655;22;97402;-47
2024/03/09 08:57:46;;;;;;;6.13;3.33;;;16.10;96.60;;;15.79;40.73;99869.47;6113532;22;97473;-44
2024/03/09 09:00:15;;;;;;;5.03;3.70;;;16.10;97.10;;;15.80;40.28;99863.19;6112725;22;97194;-45
2024/03/09 09:02:41;;;;;;;5.83;3.10;;;16.10;96.30;;;15.77;40.41;99865.09;6100621;22;98080;-47
2024/03/09 09:05:14;;;;;;;5.57;3.40;;;16.10;96.50;;;15.75;41.03;99869.63;6118775;22;120470;-44
2024/03/09 09:07:47;;;;;;;9.10;4.80;;;16.10;97.30;;;15.86;38.51;99860.94;6114876;22;97600;-43
2024/03/09 09:10:14;;;;;;;7.90;4.43;;;16.10;95.20;;;15.81;40.25;99854.25;6112177;22;97848;-44
2024/03/09 09:12:45;;;;;;;5.60;3.70;;;16.10;96.60;;;15.80;41.00;99852.53;6114301;22;98375;-44
2024/03/09 09:15:12;;;;;;;6.00;3.77;;;16.10;97.20;;;15.84;38.20;99846.03;6112744;22;98002;-45
2024/03/09 09:17:40;;;;;;;4.73;3.23;;;16.10;94.60;;;15.88;39.89;99850.19;6114516;22;97340;-43
2024/03/09 09:20:12;;;;;;;5.97;3.17;;;16.10;96.30;;;15.81;40.35;99848.91;6100688;22;97410;-44
2024/03/09 09:22:40;;;;;;;6.97;3.87;;;16.10;96.60;;;15.81;40.54;99854.25;6109510;22;103897;-44
2024/03/09 09:25:12;;;;;;;5.50;3.40;;;16.10;96.70;;;15.77;40.66;99849.16;6114008;22;103449;-44
2024/03/09 09:27:38;;;;;;;3.93;2.93;;;16.10;97.00;;;15.80;41.17;99842.75;6112427;22;97557;-50
2024/03/09 09:30:05;;;;;;;6.43;3.67;;;16.10;97.00;;;15.86;40.03;99841.47;6096286;22;102019;-44
2024/03/09 09:32:31;;;;;;;5.13;3.33;;;16.10;96.20;;;15.90;40.01;99842.94;6118088;22;104252;-43
2024/03/09 09:34:57;;;;;;;5.47;3.00;;;16.20;96.20;;;15.94;39.76;99836.47;6100232;22;100770;-41
2024/03/09 09:37:23;;;;;;;4.60;2.63;;;16.20;96.10;;;15.85;40.81;99834.44;6113922;22;97394;-46
2024/03/09 09:39:51;;;;;;;6.00;3.43;;;16.20;96.70;;;15.87;40.72;99827.22;6113268;22;97656;-44
2024/03/09 09:42:18;;;;;;;2.63;2.37;;;16.20;96.70;;;15.87;40.79;99832.53;6083378;22;99992;-45
2024/03/09 09:44:45;;;;;;;5.33;3.37;;;16.20;96.70;;;15.83;40.15;99836.38;6077459;22;99547;-45
2024/03/09 09:47:11;;;;;;;6.10;3.60;;;16.20;96.00;;;15.82;39.06;99834.66;6105058;22;97099;-42
2024/03/09 09:49:39;;;;;;;8.07;3.77;;;16.20;95.70;;;15.79;40.59;99824.25;6112637;22;97280;-44
2024/03/09 09:52:09;;;;;;;5.00;3.00;;;16.10;96.70;;;15.85;40.11;99829.13;6112008;22;102648;-42
2024/03/09 09:54:36;;;;;;;6.17;3.23;;;16.20;96.30;;;15.84;40.31;99819.44;6082613;22;102890;-43
2024/03/09 09:57:02;;;;;;;5.60;3.27;;;16.20;96.50;;;15.80;40.80;99813.50;6082293;22;97382;-40
2024/03/09 09:59:30;;;;;;;5.97;3.50;;;16.20;96.90;;;15.85;39.91;99802.53;6096305;22;97525;-44
2024/03/09 10:01:59;;;;;;;5.07;3.13;;;16.20;96.20;;;15.89;39.78;99809.31;6111348;22;98582;-44
2024/03/09 10:04:26;;;;;;;4.33;3.10;;;16.20;96.00;;;15.86;40.34;99801.56;6104884;22;97947;-46
2024/03/09 10:07:07;;;;;;;5.77;3.60;;;16.20;96.20;;;15.80;40.76;99810.00;6095622;22;97606;-43
2024/03/09 10:09:33;;;;;;;4.03;2.90;;;16.20;96.80;;;15.80;41.03;99799.38;6113205;22;97589;-44
2024/03/09 10:11:59;;;;;;;6.00;3.60;;;16.20;97.10;;;15.89;40.36;99798.69;6087102;22;98161;-42
2024/03/09 10:14:31;;;;;;;7.17;3.73;;;16.20;96.50;;;15.89;39.82;99798.69;6063320;22;100023;-45
2024/03/09 10:17:11;;;;;;;5.73;3.47;;;16.20;95.30;;;15.79;41.07;99792.34;6095313;22;98155;-43
2024/03/09 10:19:38;;;;;;;5.37;3.23;;;16.20;96.90;;;15.80;41.47;99788.72;6068214;22;97644;-46
2024/03/09 10:22:04;;;;;;;4.73;3.20;;;16.20;97.30;;;15.88;40.55;99797.00;6084425;22;104132;-44